createdAt,value
2023-01-20T03:59:21.145Z,1005.28
2023-01-20T04:00:20.543Z,1005.29
2023-01-20T04:01:20.723Z,1005.29
2023-01-20T04:02:20.615Z,1005.28
2023-01-20T04:03:21.144Z,1005.29
2023-01-20T04:04:19.511Z,1005.32
2023-01-20T04:05:21.112Z,1005.32
2023-01-20T04:06:21.137Z,1005.30
2023-01-20T04:07:21.112Z,1005.33
2023-01-20T04:08:21.123Z,1005.34
2023-01-20T04:09:21.110Z,1005.37
2023-01-20T04:10:21.110Z,1005.35
2023-01-20T04:11:21.146Z,1005.31
2023-01-20T04:12:20.452Z,1005.32
2023-01-20T04:13:20.629Z,1005.36
2023-01-20T04:14:19.442Z,1005.36
2023-01-20T04:15:19.461Z,1005.32
2023-01-20T04:16:19.428Z,1005.34
2023-01-20T04:17:19.431Z,1005.35
2023-01-20T04:18:21.133Z,1005.30
2023-01-20T04:19:19.426Z,1005.31
2023-01-20T04:20:19.427Z,1005.30
2023-01-20T04:21:19.402Z,1005.30
2023-01-20T04:22:21.119Z,1005.32
2023-01-20T04:23:20.633Z,1005.34
2023-01-20T04:24:21.164Z,1005.31
2023-01-20T04:25:21.133Z,1005.33
2023-01-20T04:26:21.127Z,1005.34
2023-01-20T04:27:20.372Z,1005.34
2023-01-20T04:28:21.140Z,1005.37
2023-01-20T04:29:20.355Z,1005.34
2023-01-20T04:30:21.169Z,1005.37
2023-01-20T04:31:30.023Z,1005.39
2023-01-20T04:32:20.648Z,1005.41
2023-01-20T04:33:21.129Z,1005.43
2023-01-20T04:34:21.140Z,1005.41
2023-01-20T04:35:20.325Z,1005.47
2023-01-20T04:36:21.129Z,1005.47
2023-01-20T04:37:20.650Z,1005.48
2023-01-20T04:38:21.132Z,1005.52
2023-01-20T04:39:21.138Z,1005.57
2023-01-20T04:40:21.152Z,1005.58
2023-01-20T04:41:20.303Z,1005.59
2023-01-20T04:42:19.294Z,1005.60
2023-01-20T04:43:20.293Z,1005.59
2023-01-20T04:44:21.165Z,1005.63
2023-01-20T04:45:20.649Z,1005.62
2023-01-20T04:46:20.706Z,1005.63
2023-01-20T04:47:20.267Z,1005.65
2023-01-20T04:48:20.272Z,1005.65
2023-01-20T04:49:19.259Z,1005.66
2023-01-20T04:50:21.174Z,1005.65
2023-01-20T04:51:20.249Z,1005.63
2023-01-20T04:52:20.659Z,1005.67
2023-01-20T04:53:20.243Z,1005.64
2023-01-20T04:54:20.234Z,1005.64
2023-01-20T04:55:21.162Z,1005.57
2023-01-20T04:56:21.178Z,1005.60
2023-01-20T04:57:21.151Z,1005.60
2023-01-20T04:58:21.147Z,1005.64
2023-01-20T04:59:21.204Z,1005.61
2023-01-20T05:00:21.177Z,1005.63
2023-01-20T05:01:21.254Z,1005.65
2023-01-20T05:02:21.388Z,1005.67
2023-01-20T05:03:21.158Z,1005.67
2023-01-20T05:04:21.163Z,1005.70
2023-01-20T05:05:21.179Z,1005.71
2023-01-20T05:06:21.177Z,1005.68
2023-01-20T05:07:21.158Z,1005.72
2023-01-20T05:08:21.156Z,1005.71
2023-01-20T05:09:20.173Z,1005.73
2023-01-20T05:10:20.672Z,1005.77
2023-01-20T05:11:20.681Z,1005.76
2023-01-20T05:12:20.660Z,1005.79
2023-01-20T05:13:20.657Z,1005.80
2023-01-20T05:14:20.664Z,1005.83
2023-01-20T05:15:20.686Z,1005.77
2023-01-20T05:16:20.677Z,1005.80
2023-01-20T05:17:20.661Z,1005.84
2023-01-20T05:18:20.697Z,1005.83
2023-01-20T05:19:20.665Z,1005.86
2023-01-20T05:20:20.692Z,1005.83
2023-01-20T05:21:20.699Z,1005.83
2023-01-20T05:22:20.681Z,1005.84
2023-01-20T05:23:21.191Z,1005.84
2023-01-20T05:24:20.101Z,1005.84
2023-01-20T05:25:20.189Z,1005.86
2023-01-20T05:26:19.095Z,1005.84
2023-01-20T05:27:20.673Z,1005.84
2023-01-20T05:28:20.081Z,1005.81
2023-01-20T05:29:20.198Z,1005.82
2023-01-20T05:30:20.090Z,1005.87
2023-01-20T05:31:20.239Z,1005.87
2023-01-20T05:32:20.065Z,1005.89
2023-01-20T05:33:20.695Z,1005.86
2023-01-20T05:34:20.066Z,1005.88
2023-01-20T05:35:20.686Z,1005.86
2023-01-20T05:36:20.039Z,1005.92
2023-01-20T05:37:20.700Z,1005.89
2023-01-20T05:38:20.678Z,1005.88
2023-01-20T05:39:20.699Z,1005.90
2023-01-20T05:40:20.681Z,1005.91
2023-01-20T05:41:20.683Z,1005.96
2023-01-20T05:42:20.681Z,1005.98
2023-01-20T05:43:20.695Z,1005.97
2023-01-20T05:44:20.704Z,1006.00
2023-01-20T05:45:19.044Z,1005.98
2023-01-20T05:46:19.050Z,1005.99
2023-01-20T05:47:20.204Z,1006.03
2023-01-20T05:48:18.987Z,1006.02
2023-01-20T05:49:20.701Z,1006.04
2023-01-20T05:50:18.987Z,1006.07
2023-01-20T05:51:18.979Z,1006.09
2023-01-20T05:52:18.976Z,1006.09
2023-01-20T05:53:18.973Z,1006.08
2023-01-20T05:54:20.209Z,1006.11
2023-01-20T05:55:18.953Z,1006.11
2023-01-20T05:56:18.958Z,1006.13
2023-01-20T05:57:18.948Z,1006.15
2023-01-20T05:58:20.724Z,1006.16
2023-01-20T05:59:18.930Z,1006.16
2023-01-20T06:00:20.735Z,1006.19
2023-01-20T06:01:20.724Z,1006.22
2023-01-20T06:02:19.989Z,1006.25
2023-01-20T06:03:20.720Z,1006.24
2023-01-20T06:04:20.216Z,1006.26
2023-01-20T06:05:20.709Z,1006.29
2023-01-20T06:06:20.713Z,1006.29
2023-01-20T06:07:19.903Z,1006.30
2023-01-20T06:08:20.706Z,1006.30
2023-01-20T06:09:20.725Z,1006.37
2023-01-20T06:10:20.725Z,1006.36
2023-01-20T06:11:20.715Z,1006.40
2023-01-20T06:12:20.708Z,1006.42
2023-01-20T06:13:20.720Z,1006.42
2023-01-20T06:14:20.718Z,1006.44
2023-01-20T06:15:20.707Z,1006.41
2023-01-20T06:16:20.759Z,1006.47
2023-01-20T06:17:20.739Z,1006.42
2023-01-20T06:18:19.843Z,1006.45
2023-01-20T06:19:20.725Z,1006.47
2023-01-20T06:20:18.835Z,1006.47
2023-01-20T06:21:19.837Z,1006.46
2023-01-20T06:22:19.843Z,1006.49
2023-01-20T06:23:19.823Z,1006.48
2023-01-20T06:24:20.243Z,1006.49
2023-01-20T06:25:19.816Z,1006.48
2023-01-20T06:26:19.809Z,1006.49
2023-01-20T06:27:19.810Z,1006.51
2023-01-20T06:28:19.797Z,1006.52
2023-01-20T06:29:20.736Z,1006.52
2023-01-20T06:30:20.731Z,1006.50
2023-01-20T06:31:20.802Z,1006.53
2023-01-20T06:32:20.737Z,1006.53
2023-01-20T06:33:20.745Z,1006.59
2023-01-20T06:34:20.722Z,1006.57
2023-01-20T06:35:20.726Z,1006.57
2023-01-20T06:36:20.738Z,1006.55
2023-01-20T06:37:20.726Z,1006.60
2023-01-20T06:38:20.764Z,1006.63
2023-01-20T06:39:18.760Z,1006.62
2023-01-20T06:40:18.759Z,1006.58
2023-01-20T06:41:20.283Z,1006.58
2023-01-20T06:42:19.748Z,1006.60
2023-01-20T06:43:18.728Z,1006.61
2023-01-20T06:44:20.245Z,1006.62
2023-01-20T06:45:18.744Z,1006.65
2023-01-20T06:46:19.903Z,1006.65
2023-01-20T06:47:20.247Z,1006.67
2023-01-20T06:48:20.248Z,1006.69
2023-01-20T06:49:18.717Z,1006.69
2023-01-20T06:50:20.265Z,1006.69
2023-01-20T06:51:18.945Z,1006.68
2023-01-20T06:52:19.132Z,1006.70
2023-01-20T06:53:20.318Z,1006.70
2023-01-20T06:54:19.797Z,1006.75
2023-01-20T06:55:18.690Z,1006.77
2023-01-20T06:56:18.894Z,1006.76
2023-01-20T06:57:18.772Z,1006.74
2023-01-20T06:58:19.829Z,1006.78
2023-01-20T06:59:18.664Z,1006.79
2023-01-20T07:00:20.246Z,1006.78
2023-01-20T07:01:18.765Z,1006.85
2023-01-20T07:02:20.283Z,1006.87
2023-01-20T07:03:18.640Z,1006.84
2023-01-20T07:04:20.297Z,1006.87
2023-01-20T07:05:18.646Z,1006.88
2023-01-20T07:06:20.249Z,1006.89
2023-01-20T07:07:18.624Z,1006.88
2023-01-20T07:08:20.284Z,1006.89
2023-01-20T07:09:20.268Z,1006.87
2023-01-20T07:10:18.625Z,1006.89
2023-01-20T07:11:20.265Z,1006.88
2023-01-20T07:12:20.254Z,1006.91
2023-01-20T07:13:20.259Z,1006.91
2023-01-20T07:14:20.254Z,1006.98
2023-01-20T07:15:20.259Z,1006.94
2023-01-20T07:16:20.339Z,1006.93
2023-01-20T07:17:20.271Z,1006.96
2023-01-20T07:18:20.285Z,1006.97
2023-01-20T07:19:20.271Z,1006.98
2023-01-20T07:20:18.595Z,1007.03
2023-01-20T07:21:18.553Z,1007.04
2023-01-20T07:22:18.554Z,1007.09
2023-01-20T07:23:20.283Z,1007.02
2023-01-20T07:24:18.552Z,1007.11
2023-01-20T07:25:18.543Z,1007.08
2023-01-20T07:26:18.579Z,1007.11
2023-01-20T07:27:18.533Z,1007.09
2023-01-20T07:28:20.283Z,1007.09
2023-01-20T07:29:18.529Z,1007.09
2023-01-20T07:30:20.307Z,1007.14
2023-01-20T07:31:18.766Z,1007.13
2023-01-20T07:32:20.290Z,1007.13
2023-01-20T07:33:20.273Z,1007.09
2023-01-20T07:34:20.280Z,1007.13
2023-01-20T07:35:18.500Z,1007.14
2023-01-20T07:37:20.269Z,1007.16
2023-01-20T07:38:20.295Z,1007.16
2023-01-20T07:39:20.455Z,1007.20
2023-01-20T07:40:20.283Z,1007.17
2023-01-20T07:42:20.331Z,1007.23
2023-01-20T07:43:20.289Z,1007.22
2023-01-20T07:44:20.316Z,1007.27
2023-01-20T07:45:20.279Z,1007.30
2023-01-20T07:46:20.329Z,1007.33
2023-01-20T07:47:20.301Z,1007.35
2023-01-20T07:48:20.281Z,1007.31
2023-01-20T07:49:18.428Z,1007.32
2023-01-20T07:51:20.311Z,1007.35
2023-01-20T07:52:18.415Z,1007.36
2023-01-20T07:53:18.428Z,1007.40
2023-01-20T07:54:18.410Z,1007.44
2023-01-20T07:55:18.399Z,1007.49
2023-01-20T07:56:18.394Z,1007.49
2023-01-20T07:58:18.408Z,1007.49
2023-01-20T07:59:18.384Z,1007.54
2023-01-20T08:00:18.470Z,1007.57
2023-01-20T08:02:20.352Z,1007.58
2023-01-20T08:03:18.367Z,1007.61
2023-01-20T08:04:20.307Z,1007.62
2023-01-20T08:05:20.296Z,1007.60
2023-01-20T08:06:20.296Z,1007.63
2023-01-20T08:08:20.301Z,1007.67
2023-01-20T08:10:20.307Z,1007.69
2023-01-20T08:11:20.316Z,1007.67
2023-01-20T08:12:20.341Z,1007.72
2023-01-20T08:13:19.315Z,1007.73
2023-01-20T08:14:19.878Z,1007.78
2023-01-20T08:15:19.801Z,1007.82
2023-01-20T08:16:19.859Z,1007.81
2023-01-20T08:17:19.806Z,1007.82
2023-01-20T08:18:19.820Z,1007.84
2023-01-20T08:19:19.832Z,1007.86
2023-01-20T08:20:19.831Z,1007.88
2023-01-20T08:21:19.808Z,1007.87
2023-01-20T08:22:19.809Z,1007.86
2023-01-20T08:23:19.823Z,1007.89
2023-01-20T08:24:19.825Z,1007.90
2023-01-20T08:25:18.259Z,1007.94
2023-01-20T08:26:19.808Z,1007.94
2023-01-20T08:27:18.844Z,1007.98
2023-01-20T08:28:18.248Z,1007.97
2023-01-20T08:29:19.851Z,1007.99
2023-01-20T08:30:18.353Z,1008.01
2023-01-20T08:31:18.352Z,1008.02
2023-01-20T08:32:19.248Z,1008.04
2023-01-20T08:33:20.571Z,1008.07
2023-01-20T08:34:21.029Z,1008.07
2023-01-20T08:35:19.933Z,1008.08
2023-01-20T08:36:18.381Z,1008.07
2023-01-20T08:37:18.209Z,1008.08
2023-01-20T08:38:18.202Z,1008.11
2023-01-20T08:39:19.865Z,1008.07
2023-01-20T08:40:18.278Z,1008.11
2023-01-20T08:41:18.195Z,1008.11
2023-01-20T08:42:19.862Z,1008.09
2023-01-20T08:43:18.228Z,1008.09
2023-01-20T08:44:19.856Z,1008.13
2023-01-20T08:45:18.170Z,1008.12
2023-01-20T08:46:18.299Z,1008.15
2023-01-20T08:47:18.268Z,1008.16
2023-01-20T08:48:19.969Z,1008.12
2023-01-20T08:49:18.154Z,1008.14
2023-01-20T08:50:18.155Z,1008.17
2023-01-20T08:51:18.156Z,1008.17
2023-01-20T08:52:18.137Z,1008.15
2023-01-20T08:53:19.349Z,1008.15
2023-01-20T08:54:19.125Z,1008.18
2023-01-20T08:55:18.133Z,1008.19
2023-01-20T08:56:18.127Z,1008.17
2023-01-20T08:57:18.160Z,1008.21
2023-01-20T08:58:18.118Z,1008.22
2023-01-20T08:59:20.833Z,1008.23
2023-01-20T09:00:18.102Z,1008.21
2023-01-20T09:01:18.177Z,1008.23
2023-01-20T09:02:18.171Z,1008.24
2023-01-20T09:03:18.125Z,1008.24
2023-01-20T09:04:19.866Z,1008.23
2023-01-20T09:07:20.097Z,1008.31
2023-01-20T09:08:19.869Z,1008.30
2023-01-20T09:09:19.864Z,1008.33
2023-01-20T09:10:20.059Z,1008.34
2023-01-20T09:11:20.921Z,1008.37
2023-01-20T09:12:18.047Z,1008.33
2023-01-20T09:13:19.850Z,1008.36
2023-01-20T09:15:19.856Z,1008.39
2023-01-20T09:16:19.952Z,1008.36
2023-01-20T09:17:19.899Z,1008.39
2023-01-20T09:18:19.889Z,1008.42
2023-01-20T09:19:19.876Z,1008.43
2023-01-20T09:20:19.859Z,1008.42
2023-01-20T09:21:19.858Z,1008.45
2023-01-20T09:22:19.861Z,1008.46
2023-01-20T09:23:19.860Z,1008.48
2023-01-20T09:24:19.877Z,1008.50
2023-01-20T09:25:19.875Z,1008.53
2023-01-20T09:26:35.012Z,1008.56
2023-01-20T09:27:19.871Z,1008.60
2023-01-20T09:28:17.990Z,1008.60
2023-01-20T09:29:17.993Z,1008.59
2023-01-20T09:31:20.058Z,1008.64
2023-01-20T09:33:19.874Z,1008.66
2023-01-20T09:34:20.024Z,1008.70
2023-01-20T09:35:19.891Z,1008.72
2023-01-20T09:36:18.110Z,1008.71
2023-01-20T09:37:17.949Z,1008.72
2023-01-20T09:38:19.880Z,1008.75
2023-01-20T09:39:19.888Z,1008.76
2023-01-20T09:41:17.925Z,1008.80
2023-01-20T09:44:19.889Z,1008.85
2023-01-20T09:45:19.913Z,1008.87
2023-01-20T09:46:19.982Z,1008.88
2023-01-20T09:48:19.887Z,1008.91
2023-01-20T09:49:18.905Z,1008.92
2023-01-20T09:50:19.462Z,1008.91
2023-01-20T09:51:19.402Z,1008.92
2023-01-20T09:52:19.383Z,1008.92
2023-01-20T09:53:19.880Z,1008.92
2023-01-20T09:54:19.388Z,1008.90
2023-01-20T09:55:19.388Z,1008.94
2023-01-20T09:57:19.404Z,1008.93
2023-01-20T09:58:17.853Z,1008.97
2023-01-20T09:59:17.849Z,1008.95
2023-01-20T10:00:19.413Z,1008.96
2023-01-20T10:01:17.865Z,1008.96
2023-01-20T10:14:36.087Z,1008.90
2023-01-20T10:15:35.240Z,1008.90
2023-01-20T10:16:36.945Z,1008.90
2023-01-20T10:17:35.055Z,1008.92
2023-01-20T10:18:36.955Z,1008.94
2023-01-20T10:19:36.043Z,1008.95
2023-01-20T10:20:36.931Z,1008.97
2023-01-20T10:21:35.039Z,1008.97
2023-01-20T10:23:35.034Z,1008.98
2023-01-20T10:24:36.940Z,1008.97
2023-01-20T10:25:37.987Z,1008.98
2023-01-20T10:26:35.036Z,1008.98
2023-01-20T10:27:35.952Z,1008.98
2023-01-20T10:28:36.616Z,1009.02
2023-01-20T10:29:36.981Z,1009.01
2023-01-20T10:30:35.447Z,1009.02
2023-01-20T10:31:37.063Z,1009.03
2023-01-20T10:32:35.010Z,1009.05
2023-01-20T10:33:35.163Z,1009.00
2023-01-20T10:34:35.184Z,1009.04
2023-01-20T10:35:37.304Z,1009.06
2023-01-20T10:36:37.166Z,1009.07
2023-01-20T10:37:34.987Z,1009.06
2023-01-20T10:38:35.107Z,1009.08
2023-01-20T10:39:36.424Z,1009.12
2023-01-20T10:40:35.456Z,1009.10
2023-01-20T10:41:34.955Z,1009.14
2023-01-20T10:42:36.476Z,1009.08
2023-01-20T10:43:35.050Z,1009.16
2023-01-20T10:44:34.968Z,1009.14
2023-01-20T10:45:36.443Z,1009.16
2023-01-20T10:46:35.055Z,1009.10
2023-01-20T10:47:36.482Z,1009.16
2023-01-20T10:48:34.922Z,1009.13
2023-01-20T10:49:34.951Z,1009.13
2023-01-20T10:50:34.989Z,1009.10
2023-01-20T10:51:36.466Z,1009.11
2023-01-20T10:52:36.462Z,1009.12
2023-01-20T10:53:36.449Z,1009.14
2023-01-20T10:54:36.466Z,1009.15
2023-01-20T10:55:36.464Z,1009.12
2023-01-20T10:56:36.460Z,1009.16
2023-01-20T10:57:36.456Z,1009.14
2023-01-20T10:58:36.479Z,1009.12
2023-01-20T10:59:36.467Z,1009.16
2023-01-20T11:00:36.462Z,1009.16
2023-01-20T11:02:36.627Z,1009.16
2023-01-20T11:03:36.487Z,1009.13
2023-01-20T11:04:36.460Z,1009.15
2023-01-20T11:06:34.847Z,1009.16
2023-01-20T11:08:35.496Z,1009.15
2023-01-20T11:09:36.478Z,1009.16
2023-01-20T11:10:34.838Z,1009.13
2023-01-20T11:11:35.837Z,1009.18
2023-01-20T11:12:34.855Z,1009.16
2023-01-20T11:13:36.498Z,1009.18
2023-01-20T11:14:36.497Z,1009.20
2023-01-20T11:15:36.472Z,1009.18
2023-01-20T11:16:36.517Z,1009.17
2023-01-20T11:17:36.488Z,1009.17
2023-01-20T11:18:34.824Z,1009.20
2023-01-20T11:19:38.247Z,1009.16
2023-01-20T11:20:36.485Z,1009.16
2023-01-20T11:21:36.524Z,1009.19
2023-01-20T11:22:36.493Z,1009.20
2023-01-20T11:23:34.786Z,1009.18
2023-01-20T11:24:36.480Z,1009.21
2023-01-20T11:25:36.476Z,1009.20
2023-01-20T11:26:36.491Z,1009.21
2023-01-20T11:27:36.489Z,1009.21
2023-01-20T11:28:36.510Z,1009.26
2023-01-20T11:29:36.498Z,1009.33
2023-01-20T11:30:34.798Z,1009.32
2023-01-20T11:31:36.553Z,1009.30
2023-01-20T11:33:36.544Z,1009.35
2023-01-20T11:34:36.486Z,1009.34
2023-01-20T11:35:36.501Z,1009.33
2023-01-20T11:36:36.494Z,1009.35
2023-01-20T11:37:36.512Z,1009.38
2023-01-20T11:38:34.748Z,1009.39
2023-01-20T11:39:36.486Z,1009.39
2023-01-20T11:40:34.735Z,1009.40
2023-01-20T11:41:36.503Z,1009.43
2023-01-20T11:42:36.704Z,1009.40
2023-01-20T11:43:36.522Z,1009.43
2023-01-20T11:44:34.727Z,1009.42
2023-01-20T11:45:34.779Z,1009.43
2023-01-20T11:46:34.822Z,1009.41
2023-01-20T11:47:34.717Z,1009.39
2023-01-20T11:48:37.513Z,1009.41
2023-01-20T11:49:34.724Z,1009.40
2023-01-20T11:50:36.500Z,1009.42
2023-01-20T11:51:34.762Z,1009.43
2023-01-20T11:52:36.539Z,1009.42
2023-01-20T11:53:34.704Z,1009.45
2023-01-20T11:54:37.373Z,1009.44
2023-01-20T11:55:34.686Z,1009.47
2023-01-20T11:56:36.512Z,1009.49
2023-01-20T11:57:34.677Z,1009.48
2023-01-20T11:58:36.705Z,1009.51
2023-01-20T11:59:36.534Z,1009.53
2023-01-20T12:00:37.363Z,1009.53
2023-01-20T12:01:36.547Z,1009.53
2023-01-20T12:02:36.509Z,1009.51
2023-01-20T12:03:36.509Z,1009.51
2023-01-20T12:04:36.596Z,1009.52
2023-01-20T12:05:36.646Z,1009.53
2023-01-20T12:06:36.519Z,1009.60
2023-01-20T12:07:36.518Z,1009.54
2023-01-20T12:08:36.532Z,1009.59
2023-01-20T12:09:36.545Z,1009.60
2023-01-20T12:10:36.539Z,1009.60
2023-01-20T12:11:34.652Z,1009.61
2023-01-20T12:12:36.519Z,1009.62
2023-01-20T12:14:36.555Z,1009.64
2023-01-20T12:15:34.689Z,1009.63
2023-01-20T12:16:35.063Z,1009.66
2023-01-20T12:17:35.436Z,1009.63
2023-01-20T12:18:34.795Z,1009.65
2023-01-20T12:19:43.532Z,1009.67
2023-01-20T12:20:45.607Z,1009.69
2023-01-20T12:21:34.634Z,1009.68
2023-01-20T12:22:34.631Z,1009.68
2023-01-20T12:23:36.581Z,1009.72
2023-01-20T12:24:42.918Z,1009.73
2023-01-20T12:25:36.766Z,1009.75
2023-01-20T12:26:36.538Z,1009.77
2023-01-20T12:27:36.531Z,1009.73
2023-01-20T12:28:36.531Z,1009.73
2023-01-20T12:29:36.541Z,1009.77
2023-01-20T12:30:36.655Z,1009.77
2023-01-20T12:31:36.566Z,1009.76
2023-01-20T12:32:36.700Z,1009.76
2023-01-20T12:33:36.536Z,1009.75
2023-01-20T12:34:36.534Z,1009.78
2023-01-20T12:35:37.153Z,1009.78
2023-01-20T12:36:36.561Z,1009.78
2023-01-20T12:37:35.770Z,1009.83
2023-01-20T12:38:35.941Z,1009.80
2023-01-20T12:39:35.772Z,1009.83
2023-01-20T12:40:35.558Z,1009.85
2023-01-20T12:41:36.056Z,1009.89
2023-01-20T12:42:37.049Z,1009.88
2023-01-20T12:43:36.051Z,1009.92
2023-01-20T12:44:36.061Z,1009.90
2023-01-20T12:45:34.555Z,1009.87
2023-01-20T12:46:35.527Z,1009.92
2023-01-20T12:47:36.096Z,1009.94
2023-01-20T12:48:36.050Z,1009.94
2023-01-20T12:49:36.048Z,1009.94
2023-01-20T12:50:36.056Z,1009.94
2023-01-20T12:51:36.055Z,1009.96
2023-01-20T12:52:36.183Z,1009.99
2023-01-20T12:53:36.057Z,1010.00
2023-01-20T12:54:47.798Z,1009.99
2023-01-20T12:55:36.061Z,1010.03
2023-01-20T12:56:36.068Z,1010.03
2023-01-20T12:57:36.061Z,1010.04
2023-01-20T12:58:36.062Z,1010.06
2023-01-20T12:59:36.061Z,1010.04
2023-01-20T13:00:36.072Z,1010.06
2023-01-20T13:01:36.062Z,1010.07
2023-01-20T13:02:36.084Z,1010.07
2023-01-20T13:03:36.079Z,1010.09
2023-01-20T13:04:36.066Z,1010.06
2023-01-20T13:05:36.071Z,1010.13
2023-01-20T13:06:36.093Z,1010.13
2023-01-20T13:07:36.069Z,1010.11
2023-01-20T13:08:36.114Z,1010.11
2023-01-20T13:09:36.077Z,1010.12
2023-01-20T13:10:36.071Z,1010.13
2023-01-20T13:11:36.105Z,1010.11
2023-01-20T13:12:34.457Z,1010.13
2023-01-20T13:13:38.204Z,1010.16
2023-01-20T13:14:34.448Z,1010.18
2023-01-20T13:15:34.445Z,1010.20
2023-01-20T13:16:36.106Z,1010.22
2023-01-20T13:17:34.430Z,1010.21
2023-01-20T13:18:36.084Z,1010.24
2023-01-20T13:19:34.426Z,1010.24
2023-01-20T13:20:36.079Z,1010.29
2023-01-20T13:21:36.101Z,1010.27
2023-01-20T13:22:34.423Z,1010.28
2023-01-20T13:23:36.090Z,1010.30
2023-01-20T13:24:36.111Z,1010.34
2023-01-20T13:25:36.097Z,1010.37
2023-01-20T13:26:34.403Z,1010.38
2023-01-20T13:27:36.092Z,1010.37
2023-01-20T13:28:34.397Z,1010.42
2023-01-20T13:29:36.088Z,1010.37
2023-01-20T13:30:36.221Z,1010.40
2023-01-20T13:31:36.218Z,1010.41
2023-01-20T13:32:36.088Z,1010.41
2023-01-20T13:33:36.098Z,1010.41
2023-01-20T13:34:36.117Z,1010.39
2023-01-20T13:35:36.106Z,1010.42
2023-01-20T13:36:36.095Z,1010.40
2023-01-20T13:37:36.093Z,1010.41
2023-01-20T13:38:36.097Z,1010.42
2023-01-20T13:39:36.093Z,1010.41
2023-01-20T13:40:36.125Z,1010.46
2023-01-20T13:41:34.346Z,1010.47
2023-01-20T13:42:34.345Z,1010.46
2023-01-20T13:43:34.344Z,1010.49
2023-01-20T13:44:34.330Z,1010.49
2023-01-20T13:45:36.117Z,1010.50
2023-01-20T13:46:36.119Z,1010.49
2023-01-20T13:47:34.321Z,1010.49
2023-01-20T13:48:34.328Z,1010.49
2023-01-20T13:49:34.321Z,1010.53
2023-01-20T13:50:36.135Z,1010.56
2023-01-20T13:51:36.120Z,1010.54
2023-01-20T13:52:36.138Z,1010.58
2023-01-20T13:53:36.121Z,1010.57
2023-01-20T13:54:36.113Z,1010.56
2023-01-20T13:55:36.146Z,1010.56
2023-01-20T13:56:36.120Z,1010.58
2023-01-20T13:57:36.119Z,1010.60
2023-01-20T13:58:36.127Z,1010.61
2023-01-20T13:59:36.116Z,1010.60
2023-01-20T14:00:36.119Z,1010.63
2023-01-20T14:01:36.176Z,1010.66
2023-01-20T14:02:36.173Z,1010.64
2023-01-20T14:03:36.124Z,1010.66
2023-01-20T14:04:36.129Z,1010.67
2023-01-20T14:05:36.115Z,1010.67
2023-01-20T14:06:36.406Z,1010.70
2023-01-20T14:07:34.247Z,1010.74
2023-01-20T14:08:34.251Z,1010.75
2023-01-20T14:09:36.133Z,1010.78
2023-01-20T14:10:34.247Z,1010.79
2023-01-20T14:11:34.228Z,1010.79
2023-01-20T14:12:36.166Z,1010.81
2023-01-20T14:13:36.157Z,1010.83
2023-01-20T14:14:34.226Z,1010.84
2023-01-20T14:15:36.239Z,1010.83
2023-01-20T14:16:34.275Z,1010.84
2023-01-20T14:17:36.138Z,1010.88
2023-01-20T14:18:36.141Z,1010.86
2023-01-20T14:19:34.196Z,1010.92
2023-01-20T14:20:34.204Z,1010.91
2023-01-20T14:21:36.130Z,1010.92
2023-01-20T14:22:36.135Z,1010.89
2023-01-20T14:23:36.145Z,1010.90
2023-01-20T14:24:36.142Z,1010.94
2023-01-20T14:25:36.152Z,1010.94
2023-01-20T14:26:36.147Z,1010.92
2023-01-20T14:27:36.136Z,1010.94
2023-01-20T14:28:36.195Z,1010.94
2023-01-20T14:29:36.134Z,1010.95
2023-01-20T14:30:36.223Z,1011.00
2023-01-20T14:31:36.267Z,1011.05
2023-01-20T14:32:35.162Z,1011.01
2023-01-20T14:33:35.640Z,1011.05
2023-01-20T14:34:35.658Z,1011.07
2023-01-20T14:35:35.657Z,1011.12
2023-01-20T14:36:35.644Z,1011.13
2023-01-20T14:37:35.660Z,1011.12
2023-01-20T14:38:45.151Z,1011.15
2023-01-20T14:39:35.656Z,1011.17
2023-01-20T14:40:35.650Z,1011.19
2023-01-20T14:41:35.661Z,1011.22
2023-01-20T14:42:35.648Z,1011.19
2023-01-20T14:43:35.653Z,1011.22
2023-01-20T14:44:34.106Z,1011.23
2023-01-20T14:45:35.667Z,1011.23
2023-01-20T14:46:35.196Z,1011.25
2023-01-20T14:47:35.668Z,1011.29
2023-01-20T14:48:35.258Z,1011.37
2023-01-20T14:49:34.088Z,1011.33
2023-01-20T14:50:35.730Z,1011.34
2023-01-20T14:51:34.080Z,1011.35
2023-01-20T14:52:37.178Z,1011.40
2023-01-20T14:53:35.072Z,1011.38
2023-01-20T14:54:35.071Z,1011.40
2023-01-20T14:55:35.170Z,1011.44
2023-01-20T14:56:35.054Z,1011.44
2023-01-20T14:57:35.677Z,1011.43
2023-01-20T14:58:35.075Z,1011.45
2023-01-20T14:59:35.672Z,1011.51
2023-01-20T15:00:35.680Z,1011.51
2023-01-20T15:01:35.792Z,1011.51
2023-01-20T15:02:35.702Z,1011.58
2023-01-20T15:03:35.687Z,1011.57
2023-01-20T15:04:35.668Z,1011.58
2023-01-20T15:05:35.696Z,1011.60
2023-01-20T15:06:35.670Z,1011.63
2023-01-20T15:07:35.672Z,1011.62
2023-01-20T15:08:35.191Z,1011.62
2023-01-20T15:09:35.692Z,1011.61
2023-01-20T15:10:35.001Z,1011.63
2023-01-20T15:11:35.728Z,1011.64
2023-01-20T15:12:34.995Z,1011.65
2023-01-20T15:13:37.640Z,1011.73
2023-01-20T15:14:35.701Z,1011.72
2023-01-20T15:15:33.987Z,1011.75
2023-01-20T15:16:33.994Z,1011.75
2023-01-20T15:17:33.969Z,1011.74
2023-01-20T15:18:33.971Z,1011.76
2023-01-20T15:19:35.200Z,1011.79
2023-01-20T15:20:33.959Z,1011.80
2023-01-20T15:21:33.956Z,1011.82
2023-01-20T15:22:33.951Z,1011.84
2023-01-20T15:23:35.202Z,1011.87
2023-01-20T15:24:35.688Z,1011.88
2023-01-20T15:25:35.688Z,1011.87
2023-01-20T15:26:34.937Z,1011.88
2023-01-20T15:27:35.694Z,1011.91
2023-01-20T15:28:35.733Z,1011.90
2023-01-20T15:29:35.741Z,1011.94
2023-01-20T15:30:34.945Z,1011.92
2023-01-20T15:31:35.718Z,1011.98
2023-01-20T15:32:35.730Z,1012.03
2023-01-20T15:33:35.696Z,1012.06
2023-01-20T15:34:35.698Z,1012.05
2023-01-20T15:35:35.718Z,1012.09
2023-01-20T15:36:35.704Z,1012.10
2023-01-20T15:37:35.694Z,1012.13
2023-01-20T15:38:35.699Z,1012.13
2023-01-20T15:39:35.699Z,1012.15
2023-01-20T15:40:35.713Z,1012.20
2023-01-20T15:41:35.700Z,1012.16
2023-01-20T15:42:35.697Z,1012.20
2023-01-20T15:43:35.703Z,1012.22
2023-01-20T15:44:35.704Z,1012.22
2023-01-20T15:45:35.725Z,1012.31
2023-01-20T15:46:34.878Z,1012.34
2023-01-20T15:47:34.844Z,1012.34
2023-01-20T15:48:34.857Z,1012.35
2023-01-20T15:49:35.747Z,1012.38
2023-01-20T15:50:33.837Z,1012.39
2023-01-20T15:51:33.836Z,1012.38
2023-01-20T15:52:33.822Z,1012.43
2023-01-20T15:53:33.817Z,1012.43
2023-01-20T15:54:33.817Z,1012.47
2023-01-20T15:55:35.722Z,1012.47
2023-01-20T15:56:35.707Z,1012.50
2023-01-20T15:57:35.736Z,1012.51
2023-01-20T15:58:35.712Z,1012.54
2023-01-20T15:59:35.730Z,1012.58
2023-01-20T16:00:35.713Z,1012.62
2023-01-20T16:12:47.483Z,1012.88
2023-01-20T16:13:47.986Z,1012.83
2023-01-20T16:14:47.220Z,1012.90
2023-01-20T16:15:47.944Z,1012.92
2023-01-20T16:16:47.991Z,1012.96
2023-01-20T16:17:47.974Z,1012.96
2023-01-20T16:18:47.454Z,1012.97
2023-01-20T16:19:46.189Z,1013.00
2023-01-20T16:20:46.185Z,1013.02
2023-01-20T16:21:46.170Z,1013.04
2023-01-20T16:22:47.165Z,1013.09
2023-01-20T16:23:47.475Z,1013.10
2023-01-20T16:24:46.175Z,1013.14
2023-01-20T16:25:46.170Z,1013.16
2023-01-20T16:26:46.152Z,1013.13
2023-01-20T16:27:47.467Z,1013.15
2023-01-20T16:28:47.496Z,1013.19
2023-01-20T16:29:47.478Z,1013.19
2023-01-20T16:30:46.154Z,1013.21
2023-01-20T16:31:46.203Z,1013.22
2023-01-20T16:32:46.149Z,1013.24
2023-01-20T16:33:48.069Z,1013.26
2023-01-20T16:34:47.952Z,1013.23
2023-01-20T16:35:47.956Z,1013.27
2023-01-20T16:36:47.991Z,1013.30
2023-01-20T16:37:47.962Z,1013.31
2023-01-20T16:38:47.977Z,1013.29
2023-01-20T16:39:47.967Z,1013.30
2023-01-20T16:40:47.965Z,1013.37
2023-01-20T16:41:47.962Z,1013.34
2023-01-20T16:42:47.971Z,1013.36
2023-01-20T16:43:48.008Z,1013.41
2023-01-20T16:44:47.975Z,1013.45
2023-01-20T16:45:48.002Z,1013.44
2023-01-20T16:46:46.064Z,1013.44
2023-01-20T16:47:47.980Z,1013.49
2023-01-20T16:48:47.479Z,1013.51
2023-01-20T16:49:47.987Z,1013.54
2023-01-20T16:50:47.997Z,1013.57